Time;durP1;ratioP1;P1;durP2;ratioP2;P2;SDS_P1;SDS_P2;PMS_P1;PMS_P2;Temp;Humidity;BMP_temperature;BMP_pressure;BME280_temperature;BME280_humidity;BME280_pressure;Samples;Min_cycle;Max_cycle;Signal;HPM_P1;HPM_P2
2023/03/20 00:01:25;;;;;;;18.37;8.90;;;6.70;99.90;;;;;;5070025;28;19924;-78
2023/03/20 00:03:51;;;;;;;15.90;9.30;;;6.70;99.90;;;;;;5068953;28;20051;-77
2023/03/20 00:06:23;;;;;;;15.97;9.27;;;6.70;99.90;;;;;;5058604;28;20316;-78
2023/03/20 00:08:51;;;;;;;17.37;8.80;;;6.70;99.90;;;;;;5047391;28;20095;-77
2023/03/20 00:11:28;;;;;;;15.20;8.37;;;6.60;99.90;;;;;;5052422;28;20045;-77
2023/03/20 00:13:56;;;;;;;15.53;8.53;;;6.60;99.90;;;;;;5069326;28;20465;-78
2023/03/20 00:16:26;;;;;;;15.27;7.90;;;6.60;99.90;;;;;;5039981;28;20051;-78
2023/03/20 00:18:51;;;;;;;14.70;7.40;;;6.60;99.90;;;;;;5055608;28;20049;-78
2023/03/20 00:21:18;;;;;;;13.27;6.30;;;6.70;99.90;;;;;;5069348;28;20047;-77
2023/03/20 00:23:44;;;;;;;14.63;6.00;;;6.50;99.90;;;;;;5069073;28;20461;-77
2023/03/20 00:26:14;;;;;;;11.83;6.47;;;6.60;99.90;;;;;;5061798;28;20045;-78
2023/03/20 00:28:45;;;;;;;13.00;5.90;;;6.60;99.90;;;;;;5029621;28;20131;-78
2023/03/20 00:31:36;;;;;;;12.13;7.35;;;6.60;99.90;;;;;;5053615;28;20044;-77
2023/03/20 00:34:14;;;;;;;11.77;6.40;;;6.60;99.90;;;;;;5050506;28;20467;-77
2023/03/20 00:36:40;;;;;;;13.63;6.83;;;6.60;99.90;;;;;;5038243;28;20056;-77
2023/03/20 00:39:06;;;;;;;15.07;6.73;;;6.60;99.90;;;;;;5066993;28;20052;-78
2023/03/20 00:41:43;;;;;;;10.70;6.90;;;6.60;99.90;;;;;;5051936;28;20048;-77
2023/03/20 00:44:17;;;;;;;12.67;6.73;;;6.60;99.90;;;;;;5054209;28;20068;-77
2023/03/20 00:46:46;;;;;;;10.97;5.60;;;6.50;99.90;;;;;;5062653;28;20125;-78
2023/03/20 00:49:12;;;;;;;11.93;6.90;;;6.50;99.90;;;;;;5067827;28;20386;-77
2023/03/20 00:51:38;;;;;;;15.93;7.13;;;6.70;99.90;;;;;;5058320;28;20036;-77
2023/03/20 00:54:15;;;;;;;11.90;6.43;;;6.50;99.90;;;;;;5057162;28;20389;-77
2023/03/20 00:56:55;;;;;;;11.50;6.23;;;6.50;99.90;;;;;;5054505;28;20475;-77
2023/03/20 00:59:24;;;;;;;15.30;6.32;;;6.50;99.90;;;;;;5068197;28;20522;-77
2023/03/20 01:01:50;;;;;;;17.90;6.60;;;6.50;99.90;;;;;;5050200;28;20048;-77
2023/03/20 01:04:18;;;;;;;12.23;6.50;;;6.50;99.90;;;;;;5067876;28;20089;-78
2023/03/20 01:06:44;;;;;;;11.10;6.57;;;6.50;99.90;;;;;;5053741;28;20050;-77
2023/03/20 01:09:10;;;;;;;15.80;6.93;;;6.50;99.90;;;;;;5067732;28;20492;-78
2023/03/20 01:11:37;;;;;;;14.00;6.47;;;6.40;99.90;;;;;;5068678;28;20128;-77
2023/03/20 01:14:03;;;;;;;12.20;6.50;;;6.50;99.90;;;;;;5066901;28;20052;-78
2023/03/20 01:16:29;;;;;;;12.80;6.40;;;6.50;99.90;;;;;;5055042;28;20086;-79
2023/03/20 01:18:55;;;;;;;16.43;6.83;;;6.60;99.90;;;;;;5066251;28;20040;-78
2023/03/20 01:21:21;;;;;;;15.90;6.70;;;6.50;99.90;;;;;;5068782;28;20421;-78
2023/03/20 01:23:48;;;;;;;15.77;7.10;;;6.50;99.90;;;;;;5067966;28;20241;-78
2023/03/20 01:26:38;;;;;;;11.50;6.80;;;6.50;99.90;;;;;;5059295;28;20067;-78
2023/03/20 01:29:17;;;;;;;13.27;7.20;;;6.50;99.90;;;;;;5035837;28;20451;-77
2023/03/20 01:31:43;;;;;;;17.37;6.83;;;6.50;99.90;;;;;;5075053;28;20090;-78
2023/03/20 01:34:11;;;;;;;15.97;8.20;;;6.50;99.90;;;;;;5072834;28;20071;-78
2023/03/20 01:36:39;;;;;;;16.47;7.50;;;6.60;99.90;;;;;;5054241;28;20056;-77
2023/03/20 01:39:05;;;;;;;14.33;7.60;;;6.40;99.90;;;;;;5067005;28;20048;-77
2023/03/20 01:41:31;;;;;;;19.77;7.70;;;6.50;99.90;;;;;;5051189;28;20044;-78
2023/03/20 01:44:16;;;;;;;18.60;7.80;;;6.50;99.90;;;;;;5052045;28;20044;-77
2023/03/20 01:46:42;;;;;;;17.23;7.87;;;6.50;99.90;;;;;;5018848;28;20500;-78
2023/03/20 01:49:28;;;;;;;15.30;7.80;;;6.50;99.90;;;;;;5049564;28;20052;-78
2023/03/20 01:51:56;;;;;;;13.63;7.90;;;6.40;99.90;;;;;;5040998;28;20044;-78
2023/03/20 01:54:29;;;;;;;20.10;9.23;;;6.50;99.90;;;;;;5048778;28;20482;-77
2023/03/20 01:57:09;;;;;;;23.47;9.50;;;6.50;99.90;;;;;;5056814;28;20486;-80
2023/03/20 01:59:40;;;;;;;19.87;8.73;;;6.50;99.90;;;;;;5053802;28;20043;-78
2023/03/20 02:02:07;;;;;;;23.13;9.95;;;6.50;99.90;;;;;;5071532;28;20058;-78
2023/03/20 02:04:40;;;;;;;23.23;9.77;;;6.50;99.90;;;;;;5054106;28;20493;-78
2023/03/20 02:07:07;;;;;;;20.73;10.00;;;6.50;99.90;;;;;;5056175;28;20102;-78
2023/03/20 02:09:32;;;;;;;23.60;10.97;;;6.60;99.90;;;;;;5037760;28;20072;-78
2023/03/20 02:11:59;;;;;;;23.00;10.97;;;6.60;99.90;;;;;;5072400;28;20039;-78
2023/03/20 02:14:25;;;;;;;24.77;10.97;;;6.60;99.90;;;;;;5071838;28;20101;-79
2023/03/20 02:16:52;;;;;;;24.43;11.17;;;6.60;99.90;;;;;;5038979;28;20402;-78
2023/03/20 02:19:37;;;;;;;26.50;11.73;;;6.60;99.90;;;;;;5071381;28;20510;-78
2023/03/20 02:22:42;;;;;;;23.60;10.93;;;6.60;99.90;;;;;;5070832;28;20133;-78
2023/03/20 02:25:17;;;;;;;26.67;11.37;;;6.60;99.90;;;;;;5071904;28;20429;-78
2023/03/20 02:28:10;;;;;;;26.77;11.27;;;6.60;99.90;;;;;;5055394;28;20068;-79
2023/03/20 02:30:57;;;;;;;31.43;11.77;;;6.60;99.90;;;;;;5071843;28;20535;-78
2023/03/20 02:34:01;;;;;;;26.13;11.70;;;6.70;99.90;;;;;;5087515;28;20709;-77
2023/03/20 02:36:58;;;;;;;29.77;12.10;;;6.70;99.90;;;;;;5059715;28;20048;-78
2023/03/20 02:39:47;;;;;;;30.03;11.80;;;6.70;99.90;;;;;;5071543;28;20036;-78
2023/03/20 02:42:27;;;;;;;23.50;11.47;;;6.70;99.90;;;;;;5070481;28;20048;-78
2023/03/20 02:45:17;;;;;;;29.83;12.20;;;6.70;99.90;;;;;;5061827;28;20097;-78
2023/03/20 02:47:59;;;;;;;32.90;11.90;;;6.70;99.90;;;;;;5055106;28;20045;-78
2023/03/20 02:50:59;;;;;;;26.08;11.73;;;6.70;99.90;;;;;;5070293;28;20050;-78
2023/03/20 02:53:53;;;;;;;27.83;10.80;;;6.70;99.90;;;;;;5045262;28;20079;-78
2023/03/20 02:56:42;;;;;;;28.73;11.80;;;6.80;99.90;;;;;;5058887;28;20115;-78
2023/03/20 02:59:27;;;;;;;26.70;11.80;;;6.80;99.90;;;;;;5035380;28;20048;-79
2023/03/20 03:02:03;;;;;;;34.17;11.13;;;6.80;99.90;;;;;;5070957;28;20044;-78
2023/03/20 03:04:33;;;;;;;30.27;11.73;;;6.80;99.90;;;;;;5052531;28;20036;-78
2023/03/20 03:07:02;;;;;;;26.63;11.68;;;6.80;99.90;;;;;;5037917;28;20052;-78
2023/03/20 03:09:52;;;;;;;27.47;12.40;;;6.80;99.90;;;;;;5052399;28;20102;-78
2023/03/20 03:12:22;;;;;;;24.73;12.07;;;6.80;99.90;;;;;;5052437;28;20484;-78
2023/03/20 03:15:05;;;;;;;25.97;11.27;;;6.80;99.90;;;;;;5052808;28;20053;-79
2023/03/20 03:17:35;;;;;;;28.70;11.97;;;6.80;99.90;;;;;;5054806;28;20119;-78
2023/03/20 03:20:06;;;;;;;28.93;12.00;;;6.80;99.90;;;;;;5070132;28;20047;-78
2023/03/20 03:22:33;;;;;;;29.53;12.23;;;6.80;99.90;;;;;;5051892;28;20036;-78
2023/03/20 03:24:59;;;;;;;26.97;12.03;;;6.70;99.90;;;;;;5036873;28;20087;-78
2023/03/20 03:27:43;;;;;;;26.93;11.60;;;6.80;99.90;;;;;;5019408;28;20091;-78
2023/03/20 03:30:23;;;;;;;27.10;11.70;;;6.80;99.90;;;;;;5053438;28;20037;-78
2023/03/20 03:32:53;;;;;;;27.43;11.47;;;6.80;99.90;;;;;;5072545;28;20036;-78
2023/03/20 03:35:21;;;;;;;25.33;12.25;;;6.90;99.90;;;;;;5070856;28;20089;-78
2023/03/20 03:38:10;;;;;;;28.20;12.27;;;6.90;99.90;;;;;;5055005;28;20051;-78
2023/03/20 03:40:44;;;;;;;26.37;12.53;;;6.90;99.90;;;;;;5069464;28;20053;-78
2023/03/20 03:43:30;;;;;;;25.27;13.03;;;6.90;99.90;;;;;;5052268;28;20069;-78
2023/03/20 03:46:06;;;;;;;25.67;13.53;;;6.90;99.90;;;;;;5066115;28;20630;-78
2023/03/20 03:48:39;;;;;;;30.20;12.03;;;6.90;99.90;;;;;;5041755;28;20032;-78
2023/03/20 03:51:12;;;;;;;28.23;13.33;;;6.80;99.90;;;;;;5064032;28;20118;-77
2023/03/20 03:53:43;;;;;;;23.63;13.30;;;6.90;99.90;;;;;;5057618;28;20082;-78
2023/03/20 03:56:12;;;;;;;29.13;13.13;;;6.90;99.90;;;;;;5063230;28;20602;-79
2023/03/20 03:58:46;;;;;;;26.13;12.53;;;6.90;99.90;;;;;;5045351;28;20084;-78
2023/03/20 04:01:15;;;;;;;21.87;12.13;;;7.10;99.90;;;;;;5070360;28;20036;-78
2023/03/20 04:03:47;;;;;;;28.70;13.33;;;7.00;99.90;;;;;;5051437;28;20542;-78
2023/03/20 04:06:15;;;;;;;30.43;12.57;;;6.90;99.90;;;;;;5060576;28;20139;-78
2023/03/20 04:08:42;;;;;;;26.60;12.20;;;7.00;99.90;;;;;;5064128;28;20053;-78
2023/03/20 04:11:19;;;;;;;26.80;12.30;;;6.90;99.90;;;;;;5070243;28;20068;-78
2023/03/20 04:13:49;;;;;;;22.37;11.57;;;7.00;99.90;;;;;;5051117;28;20928;-78
2023/03/20 04:16:16;;;;;;;21.95;11.40;;;7.00;99.90;;;;;;5041483;28;20429;-78
2023/03/20 04:18:44;;;;;;;22.80;11.23;;;6.90;99.90;;;;;;5045142;28;20681;-78
2023/03/20 04:21:10;;;;;;;17.07;10.27;;;6.90;99.90;;;;;;5069481;28;20177;-78
2023/03/20 04:23:36;;;;;;;20.33;10.10;;;7.00;99.90;;;;;;5068914;28;20040;-78
2023/03/20 04:26:03;;;;;;;22.47;10.63;;;7.00;99.90;;;;;;5070244;28;20044;-78
2023/03/20 04:28:29;;;;;;;23.23;10.47;;;7.00;99.90;;;;;;5054189;28;20044;-78
2023/03/20 04:30:57;;;;;;;20.77;10.03;;;7.00;99.90;;;;;;5063629;28;20044;-78
2023/03/20 04:33:24;;;;;;;21.50;10.03;;;7.00;99.90;;;;;;5078203;28;20044;-78
2023/03/20 04:35:50;;;;;;;22.00;10.13;;;7.00;99.90;;;;;;5052621;28;20493;-78
2023/03/20 04:38:17;;;;;;;20.57;10.30;;;7.00;99.90;;;;;;5053890;28;20047;-78
2023/03/20 04:40:46;;;;;;;19.53;11.33;;;7.00;99.90;;;;;;5036024;28;20048;-78
2023/03/20 04:43:13;;;;;;;22.20;10.60;;;6.90;99.90;;;;;;5034070;28;20036;-78
2023/03/20 04:45:40;;;;;;;18.30;11.13;;;7.00;99.90;;;;;;5052809;28;20094;-78
2023/03/20 04:48:06;;;;;;;21.80;11.90;;;7.00;99.90;;;;;;5053439;28;20166;-78
2023/03/20 04:50:31;;;;;;;21.20;10.83;;;7.10;99.90;;;;;;5068518;28;20650;-78
2023/03/20 04:52:57;;;;;;;20.93;11.73;;;7.00;99.90;;;;;;5065618;28;20115;-78
2023/03/20 04:55:23;;;;;;;21.87;11.60;;;7.00;99.90;;;;;;5054016;28;20082;-78
2023/03/20 04:57:49;;;;;;;22.67;11.90;;;7.00;99.90;;;;;;5035250;28;20036;-78
2023/03/20 05:00:16;;;;;;;25.50;12.77;;;7.00;99.90;;;;;;5068483;28;20078;-78
2023/03/20 05:02:42;;;;;;;18.67;11.73;;;7.10;99.90;;;;;;5051091;28;20052;-78
2023/03/20 05:05:08;;;;;;;23.10;12.83;;;7.10;99.90;;;;;;5050836;28;20413;-78
2023/03/20 05:07:34;;;;;;;22.63;12.50;;;7.00;99.90;;;;;;5033936;28;20043;-78
2023/03/20 05:10:00;;;;;;;24.57;12.27;;;7.10;99.90;;;;;;5069082;28;20111;-78
2023/03/20 05:12:26;;;;;;;25.37;12.73;;;7.10;99.90;;;;;;5068058;28;20489;-79
2023/03/20 05:14:53;;;;;;;23.57;12.10;;;7.10;99.90;;;;;;5051529;28;20068;-78
2023/03/20 05:17:20;;;;;;;25.13;12.77;;;7.10;99.90;;;;;;5052643;28;20114;-78
2023/03/20 05:19:46;;;;;;;26.80;13.37;;;7.10;99.90;;;;;;5051378;28;20066;-77
2023/03/20 05:22:12;;;;;;;25.67;12.30;;;7.10;99.90;;;;;;5067669;28;20147;-78
2023/03/20 05:24:38;;;;;;;27.30;13.37;;;7.00;99.90;;;;;;5069980;28;20359;-78
2023/03/20 05:27:04;;;;;;;22.00;12.87;;;7.20;99.90;;;;;;5053327;28;20048;-78
2023/03/20 05:29:29;;;;;;;22.70;12.87;;;7.00;99.90;;;;;;5069065;28;20048;-78
2023/03/20 05:31:55;;;;;;;28.17;13.60;;;7.00;99.90;;;;;;5033974;28;20040;-77
2023/03/20 05:34:21;;;;;;;26.70;13.53;;;7.10;99.90;;;;;;5066868;28;20037;-78
2023/03/20 05:36:47;;;;;;;26.23;13.97;;;7.00;99.90;;;;;;5053670;28;20504;-78
2023/03/20 05:39:12;;;;;;;29.30;14.77;;;7.10;99.90;;;;;;5068665;28;20063;-77
2023/03/20 05:41:39;;;;;;;25.83;13.63;;;7.00;99.90;;;;;;5065879;28;20041;-77
2023/03/20 05:44:05;;;;;;;27.80;14.90;;;7.10;99.90;;;;;;5069470;28;20048;-78
2023/03/20 05:46:30;;;;;;;25.67;14.93;;;7.10;99.90;;;;;;5057488;28;20040;-78
2023/03/20 05:48:56;;;;;;;27.00;15.30;;;7.10;99.90;;;;;;5047757;28;20052;-78
2023/03/20 05:51:22;;;;;;;25.70;14.30;;;7.10;99.90;;;;;;5060310;28;20055;-77
2023/03/20 05:53:47;;;;;;;28.37;15.70;;;7.10;99.90;;;;;;5062946;28;20045;-79
2023/03/20 05:56:13;;;;;;;27.50;15.00;;;7.10;99.90;;;;;;5059410;28;20071;-78
2023/03/20 05:58:39;;;;;;;32.30;14.50;;;7.10;99.90;;;;;;5061618;28;20040;-78
2023/03/20 06:01:05;;;;;;;27.10;14.47;;;7.00;99.90;;;;;;5068042;28;20049;-78
2023/03/20 06:03:31;;;;;;;26.53;13.67;;;7.00;99.90;;;;;;5068256;28;20094;-78
2023/03/20 06:05:56;;;;;;;27.37;14.73;;;7.00;99.90;;;;;;5068673;28;20045;-77
2023/03/20 06:08:22;;;;;;;24.60;13.90;;;7.00;99.90;;;;;;5052018;28;20678;-78
2023/03/20 06:10:50;;;;;;;25.47;13.23;;;7.20;99.90;;;;;;5068397;28;20114;-77
2023/03/20 06:13:16;;;;;;;29.03;14.60;;;7.00;99.90;;;;;;5048646;28;20032;-77
2023/03/20 06:15:41;;;;;;;26.80;13.80;;;7.00;99.90;;;;;;5042935;28;20048;-78
2023/03/20 06:18:07;;;;;;;21.93;13.77;;;7.00;99.90;;;;;;5051464;28;20063;-77
2023/03/20 06:20:33;;;;;;;22.93;13.07;;;7.00;99.90;;;;;;5067551;28;20066;-78
2023/03/20 06:22:58;;;;;;;23.60;13.50;;;6.90;99.90;;;;;;5066798;28;20360;-78
2023/03/20 06:25:24;;;;;;;24.17;13.73;;;7.00;99.90;;;;;;5064929;28;20033;-78
2023/03/20 06:27:50;;;;;;;23.73;12.50;;;7.10;99.90;;;;;;5033064;28;20386;-77
2023/03/20 06:30:16;;;;;;;30.47;13.60;;;7.10;99.90;;;;;;5065686;28;20076;-77
2023/03/20 06:32:42;;;;;;;24.73;13.10;;;7.10;99.90;;;;;;5047217;28;20045;-78
2023/03/20 06:35:09;;;;;;;27.90;13.17;;;7.10;99.90;;;;;;5067044;28;20386;-78
2023/03/20 06:37:35;;;;;;;26.73;13.57;;;7.10;99.90;;;;;;5051259;28;20043;-78
2023/03/20 06:40:06;;;;;;;22.67;13.07;;;7.20;99.90;;;;;;5066531;28;20063;-78
2023/03/20 06:42:31;;;;;;;26.90;13.70;;;7.10;99.90;;;;;;5070118;28;20120;-78
2023/03/20 06:44:57;;;;;;;24.97;13.83;;;7.10;99.90;;;;;;5071537;28;20044;-77
2023/03/20 06:47:23;;;;;;;23.30;12.83;;;7.10;99.90;;;;;;5036391;28;20710;-78
2023/03/20 06:49:48;;;;;;;23.70;13.03;;;7.10;99.90;;;;;;5069896;28;20111;-77
2023/03/20 06:52:16;;;;;;;24.07;13.47;;;7.20;99.90;;;;;;5067890;28;20033;-78
2023/03/20 06:54:42;;;;;;;26.47;14.50;;;7.20;99.90;;;;;;5069213;28;20048;-77
2023/03/20 06:57:07;;;;;;;21.20;12.83;;;7.20;99.90;;;;;;5054418;28;20052;-78
2023/03/20 06:59:33;;;;;;;25.73;13.80;;;7.20;99.90;;;;;;5069506;28;20029;-77
2023/03/20 07:01:59;;;;;;;24.23;13.17;;;7.20;99.90;;;;;;5069845;28;20068;-78
2023/03/20 07:04:25;;;;;;;25.93;13.17;;;7.20;99.90;;;;;;5050335;28;20043;-78
2023/03/20 07:06:51;;;;;;;24.00;13.10;;;7.30;99.90;;;;;;5055153;28;20044;-78
2023/03/20 07:09:17;;;;;;;24.00;13.40;;;7.30;99.90;;;;;;5067871;28;20068;-77
2023/03/20 07:11:43;;;;;;;25.50;14.07;;;7.30;99.90;;;;;;5069115;28;20135;-78
2023/03/20 07:14:10;;;;;;;24.57;13.53;;;7.30;99.90;;;;;;5033763;28;20036;-77
2023/03/20 07:16:35;;;;;;;26.20;14.03;;;7.40;99.90;;;;;;5050904;28;20220;-78
2023/03/20 07:19:01;;;;;;;25.27;14.43;;;7.40;99.90;;;;;;5067190;28;20101;-77
2023/03/20 07:21:28;;;;;;;24.83;13.87;;;7.50;99.90;;;;;;5068471;28;20497;-77
2023/03/20 07:23:53;;;;;;;27.53;13.80;;;7.60;99.90;;;;;;5066274;28;20048;-79
2023/03/20 07:26:20;;;;;;;30.40;13.27;;;7.60;99.90;;;;;;5056395;28;20044;-77
2023/03/20 07:28:45;;;;;;;24.93;14.03;;;7.70;99.90;;;;;;5047312;28;20119;-78
2023/03/20 07:31:25;;;;;;;25.77;14.20;;;7.70;99.90;;;;;;5071433;28;20120;-77
2023/03/20 07:33:51;;;;;;;32.63;13.93;;;7.70;99.90;;;;;;5069879;28;20040;-78
2023/03/20 07:36:17;;;;;;;19.77;13.47;;;7.80;99.90;;;;;;5058069;28;20048;-77
2023/03/20 07:38:43;;;;;;;22.20;12.93;;;7.70;99.90;;;;;;5065775;28;20044;-77
2023/03/20 07:41:09;;;;;;;24.97;13.47;;;7.80;99.90;;;;;;5068528;28;20091;-77
2023/03/20 07:43:35;;;;;;;24.63;13.93;;;7.80;99.90;;;;;;5066974;28;20058;-77
2023/03/20 07:46:03;;;;;;;22.20;13.67;;;7.80;99.90;;;;;;5053338;28;20122;-78
2023/03/20 07:48:28;;;;;;;21.70;14.17;;;7.80;99.90;;;;;;5035683;28;20048;-77
2023/03/20 07:50:54;;;;;;;27.73;14.17;;;7.90;99.90;;;;;;5069584;28;20040;-78
2023/03/20 07:53:20;;;;;;;26.00;13.80;;;7.90;99.90;;;;;;5067868;28;20067;-77
2023/03/20 07:55:46;;;;;;;21.33;12.90;;;7.90;99.90;;;;;;5051934;28;20040;-77
2023/03/20 07:58:11;;;;;;;27.27;14.27;;;7.90;99.90;;;;;;5053371;28;20045;-77
2023/03/20 08:00:37;;;;;;;28.73;14.67;;;7.90;99.90;;;;;;5069785;28;20047;-77
2023/03/20 08:03:03;;;;;;;28.47;14.63;;;8.00;99.90;;;;;;5051269;28;20052;-77
2023/03/20 08:05:29;;;;;;;29.13;13.70;;;8.00;99.90;;;;;;5069320;28;20071;-77
2023/03/20 08:07:57;;;;;;;24.77;14.27;;;8.00;99.90;;;;;;5053151;28;20126;-77
2023/03/20 08:10:23;;;;;;;26.20;14.23;;;8.00;99.90;;;;;;5069628;28;20040;-77
2023/03/20 08:12:49;;;;;;;24.20;13.70;;;8.00;99.90;;;;;;5062279;28;20381;-77
2023/03/20 08:15:15;;;;;;;28.97;15.20;;;8.00;99.90;;;;;;5066694;28;20177;-77
2023/03/20 08:17:43;;;;;;;28.60;15.70;;;8.00;99.90;;;;;;5025987;28;20048;-78
2023/03/20 08:20:10;;;;;;;26.77;14.53;;;8.00;99.90;;;;;;5048968;28;20053;-77
2023/03/20 08:22:37;;;;;;;26.73;14.53;;;7.90;99.90;;;;;;5039140;28;20386;-79
2023/03/20 08:25:03;;;;;;;27.97;14.60;;;8.00;99.90;;;;;;5033191;28;20161;-77
2023/03/20 08:27:29;;;;;;;28.17;14.27;;;7.80;99.90;;;;;;5013485;28;20044;-78
2023/03/20 08:29:55;;;;;;;25.70;14.27;;;8.00;99.90;;;;;;5030938;28;20068;-77
2023/03/20 08:32:21;;;;;;;26.67;15.07;;;8.00;99.90;;;;;;5051111;28;20175;-77
2023/03/20 08:34:47;;;;;;;25.23;14.57;;;8.00;99.90;;;;;;5049033;28;20102;-78
2023/03/20 08:37:13;;;;;;;24.73;14.57;;;8.10;99.90;;;;;;5033687;28;20468;-77
2023/03/20 08:39:39;;;;;;;27.93;14.40;;;8.10;99.90;;;;;;5049713;28;20066;-77
2023/03/20 08:42:05;;;;;;;26.10;14.50;;;8.10;99.90;;;;;;5047743;28;20052;-79
2023/03/20 08:44:31;;;;;;;29.60;14.57;;;8.20;99.90;;;;;;5052201;28;20044;-77
2023/03/20 08:46:57;;;;;;;24.03;14.90;;;8.30;99.90;;;;;;5039117;28;20192;-79
2023/03/20 08:49:23;;;;;;;25.23;14.57;;;8.20;99.90;;;;;;5059181;28;20139;-77
2023/03/20 08:51:49;;;;;;;26.83;14.03;;;8.20;99.90;;;;;;5050632;28;20045;-77
2023/03/20 08:54:17;;;;;;;24.43;14.27;;;8.30;99.90;;;;;;5053882;28;20051;-77
2023/03/20 08:56:46;;;;;;;25.77;14.30;;;8.30;99.90;;;;;;5013656;28;20063;-77
2023/03/20 08:59:11;;;;;;;26.37;13.63;;;8.30;99.90;;;;;;5032834;28;20052;-77
2023/03/20 09:01:37;;;;;;;28.57;13.87;;;8.50;99.90;;;;;;5047054;28;20631;-78
2023/03/20 09:04:04;;;;;;;25.10;12.83;;;8.50;99.90;;;;;;5047265;28;20438;-77
2023/03/20 09:06:31;;;;;;;24.57;13.37;;;8.50;99.90;;;;;;5020450;28;20053;-77
2023/03/20 09:08:57;;;;;;;27.00;13.90;;;8.60;99.90;;;;;;5014634;28;20056;-78
2023/03/20 09:11:23;;;;;;;28.10;14.20;;;8.70;99.90;;;;;;5053762;28;20063;-79
2023/03/20 09:13:49;;;;;;;24.77;13.60;;;8.80;99.90;;;;;;5048755;28;20045;-77
2023/03/20 09:16:15;;;;;;;30.33;12.63;;;8.90;99.90;;;;;;5037920;28;20115;-78
2023/03/20 09:18:41;;;;;;;24.40;12.40;;;9.00;99.90;;;;;;5041325;28;20056;-77
2023/03/20 09:21:07;;;;;;;24.40;13.00;;;8.90;99.90;;;;;;5047108;28;20057;-78
2023/03/20 09:23:32;;;;;;;29.17;12.97;;;9.00;99.90;;;;;;5062786;28;20044;-77
2023/03/20 09:25:58;;;;;;;24.30;13.03;;;9.00;99.90;;;;;;5047521;28;20452;-77
2023/03/20 09:28:24;;;;;;;23.73;12.90;;;9.10;99.90;;;;;;5031370;28;20056;-78
2023/03/20 09:30:54;;;;;;;23.53;11.93;;;9.10;99.90;;;;;;5055823;28;20060;-79
2023/03/20 09:33:20;;;;;;;20.98;12.20;;;9.10;99.90;;;;;;5044059;28;20942;-76
2023/03/20 09:35:46;;;;;;;18.47;11.77;;;9.30;99.90;;;;;;5031869;28;20052;-78
2023/03/20 09:38:13;;;;;;;22.03;12.60;;;9.30;99.90;;;;;;4997139;28;20505;-79
2023/03/20 09:40:57;;;;;;;23.40;12.37;;;9.20;99.90;;;;;;5048563;28;20489;-77
2023/03/20 09:43:43;;;;;;;21.93;12.40;;;9.20;99.90;;;;;;5046931;28;20063;-77
2023/03/20 09:46:41;;;;;;;21.40;11.33;;;9.20;99.90;;;;;;5029933;28;20044;-78
2023/03/20 09:49:13;;;;;;;23.37;12.17;;;9.40;99.90;;;;;;5011450;28;20402;-78
2023/03/20 09:51:58;;;;;;;21.57;11.67;;;9.40;99.90;;;;;;5050257;28;20487;-77
2023/03/20 09:54:35;;;;;;;24.80;11.87;;;9.50;99.90;;;;;;5055330;28;20102;-78
2023/03/20 09:57:02;;;;;;;20.70;11.50;;;9.50;99.90;;;;;;5038981;28;20521;-77
2023/03/20 09:59:31;;;;;;;22.20;11.93;;;9.40;99.90;;;;;;5029480;28;20044;-77
2023/03/20 10:02:11;;;;;;;20.77;10.70;;;9.50;99.90;;;;;;5049138;28;20051;-78
2023/03/20 10:04:38;;;;;;;23.90;10.40;;;9.60;99.90;;;;;;5029570;28;20106;-78
2023/03/20 10:07:05;;;;;;;20.33;10.33;;;9.50;99.90;;;;;;5032709;28;20051;-78
2023/03/20 10:09:32;;;;;;;21.73;10.70;;;9.60;99.90;;;;;;5030384;28;20505;-77
2023/03/20 10:12:07;;;;;;;23.70;10.53;;;9.50;99.90;;;;;;5049279;28;20045;-77
2023/03/20 10:14:52;;;;;;;22.33;11.07;;;9.40;99.90;;;;;;5047879;28;20106;-77
2023/03/20 10:17:38;;;;;;;23.23;11.07;;;9.40;99.90;;;;;;5008913;28;20079;-78
2023/03/20 10:20:25;;;;;;;23.40;11.37;;;9.40;99.90;;;;;;5051345;28;20052;-78
2023/03/20 10:22:56;;;;;;;27.90;10.80;;;9.30;99.90;;;;;;5058248;28;20048;-77
2023/03/20 10:25:34;;;;;;;22.63;11.00;;;9.50;99.90;;;;;;5052164;28;20048;-79
2023/03/20 10:28:18;;;;;;;25.67;10.43;;;9.50;99.90;;;;;;5036057;28;20049;-78
2023/03/20 10:31:03;;;;;;;25.40;11.07;;;9.60;99.90;;;;;;5051044;28;20490;-78
2023/03/20 10:33:56;;;;;;;18.97;10.23;;;9.50;99.90;;;;;;5050361;28;20113;-79
2023/03/20 10:36:34;;;;;;;24.63;11.90;;;9.60;99.90;;;;;;5038709;28;20052;-77
2023/03/20 10:39:35;;;;;;;22.70;11.73;;;9.60;99.90;;;;;;5032941;28;20052;-78
2023/03/20 10:42:08;;;;;;;29.27;12.60;;;9.50;99.90;;;;;;5043764;28;20065;-77
2023/03/20 10:44:38;;;;;;;21.27;10.73;;;9.50;99.90;;;;;;5052981;28;20048;-77
2023/03/20 10:47:08;;;;;;;24.07;11.77;;;9.40;99.90;;;;;;5049428;28;20123;-77
2023/03/20 10:49:54;;;;;;;23.00;11.50;;;9.60;99.90;;;;;;5050979;28;20075;-78
2023/03/20 10:52:26;;;;;;;25.43;11.60;;;9.50;99.90;;;;;;5053923;28;20036;-79
2023/03/20 10:55:17;;;;;;;20.50;11.47;;;9.50;99.90;;;;;;5033878;28;20075;-79
2023/03/20 10:57:57;;;;;;;26.17;12.68;;;9.40;99.90;;;;;;5034332;28;20052;-77
2023/03/20 11:00:25;;;;;;;30.57;11.90;;;9.30;99.90;;;;;;5051717;28;20055;-77
2023/03/20 11:02:52;;;;;;;25.47;13.17;;;9.30;99.90;;;;;;5050365;28;20083;-77
2023/03/20 11:05:27;;;;;;;27.33;13.20;;;9.30;99.90;;;;;;5042740;28;20044;-79
2023/03/20 11:08:13;;;;;;;25.87;13.50;;;9.30;99.90;;;;;;5040377;28;20082;-77
2023/03/20 11:10:41;;;;;;;25.83;12.80;;;9.20;99.90;;;;;;5052770;28;20056;-78
2023/03/20 11:13:18;;;;;;;29.87;13.53;;;9.10;99.90;;;;;;5030636;28;20429;-78
2023/03/20 11:15:43;;;;;;;24.97;12.90;;;9.10;99.90;;;;;;5035047;28;20149;-78
2023/03/20 11:18:14;;;;;;;30.00;14.03;;;9.30;99.90;;;;;;5043889;28;20386;-77
2023/03/20 11:20:55;;;;;;;26.15;13.05;;;9.30;99.90;;;;;;5053536;28;20065;-79
2023/03/20 11:23:32;;;;;;;26.58;13.15;;;9.30;99.90;;;;;;5058870;28;20048;-78
2023/03/20 11:26:05;;;;;;;26.53;12.63;;;9.30;99.90;;;;;;5031761;28;20052;-77
2023/03/20 11:28:35;;;;;;;21.63;12.37;;;9.30;99.90;;;;;;5021273;28;20589;-77
2023/03/20 11:31:12;;;;;;;27.13;12.70;;;9.30;99.90;;;;;;5031735;28;20060;-78
2023/03/20 11:33:44;;;;;;;21.03;12.20;;;9.30;99.90;;;;;;5055183;28;20082;-79
2023/03/20 11:36:28;;;;;;;21.20;10.80;;;9.20;99.90;;;;;;5025832;28;20190;-76
2023/03/20 11:39:05;;;;;;;20.67;11.97;;;9.20;99.90;;;;;;5013134;28;20241;-76
2023/03/20 11:41:31;;;;;;;20.80;11.50;;;9.20;99.90;;;;;;5031616;28;20140;-77
2023/03/20 11:43:56;;;;;;;22.77;11.60;;;9.20;99.90;;;;;;5049850;28;20054;-76
2023/03/20 11:46:23;;;;;;;19.20;11.43;;;9.20;99.90;;;;;;5037086;28;20060;-77
2023/03/20 11:49:15;;;;;;;21.73;10.60;;;9.10;99.90;;;;;;5055579;28;20078;-77
2023/03/20 11:51:41;;;;;;;;;;;9.10;99.90;;;;;;5032261;28;20470;-77
2023/03/20 11:54:18;;;;;;;13.07;7.97;;;9.00;99.90;;;;;;5055184;28;19923;-77
2023/03/20 11:56:53;;;;;;;12.53;6.20;;;8.90;99.90;;;;;;5038616;28;20510;-78
2023/03/20 11:59:20;;;;;;;15.67;5.37;;;8.80;99.90;;;;;;5049335;28;20044;-76
2023/03/20 12:01:51;;;;;;;12.53;4.43;;;8.90;99.90;;;;;;5057807;28;20052;-77
2023/03/20 12:04:40;;;;;;;8.73;3.87;;;8.80;99.90;;;;;;5047295;28;20403;-77
2023/03/20 12:07:21;;;;;;;10.73;4.47;;;8.80;99.90;;;;;;5032765;28;20155;-78
2023/03/20 12:09:52;;;;;;;10.17;4.63;;;8.80;99.90;;;;;;5052288;28;21477;-77
2023/03/20 12:12:37;;;;;;;;;;;8.60;99.90;;;;;;5047852;28;20052;-77
2023/03/20 12:15:52;;;;;;;9.60;4.10;;;8.50;99.90;;;;;;5049425;28;19920;-77
2023/03/20 12:18:18;;;;;;;11.97;5.13;;;8.60;99.90;;;;;;5023163;28;20059;-77
2023/03/20 12:21:06;;;;;;;12.03;4.67;;;8.50;99.90;;;;;;5058702;28;20060;-77
2023/03/20 12:23:43;;;;;;;10.83;5.87;;;8.60;99.90;;;;;;5054816;28;20049;-78
2023/03/20 12:26:18;;;;;;;14.77;6.03;;;8.50;99.90;;;;;;5040591;28;20052;-77
2023/03/20 12:28:50;;;;;;;13.63;6.70;;;8.50;99.90;;;;;;5021022;28;20355;-77
2023/03/20 12:31:33;;;;;;;16.80;8.77;;;8.50;99.90;;;;;;5054464;28;20071;-77
2023/03/20 12:34:10;;;;;;;18.17;8.97;;;8.50;99.90;;;;;;5054311;28;20056;-77
2023/03/20 12:36:48;;;;;;;11.90;8.13;;;8.40;99.90;;;;;;5034624;28;20087;-78
2023/03/20 12:39:15;;;;;;;19.83;9.30;;;8.50;99.90;;;;;;5046805;28;20205;-77
2023/03/20 12:41:59;;;;;;;17.20;10.33;;;8.30;99.90;;;;;;5046883;28;20053;-79
2023/03/20 12:44:37;;;;;;;18.57;11.00;;;8.30;99.90;;;;;;5046125;28;20131;-79
2023/03/20 12:47:27;;;;;;;19.13;10.90;;;8.20;99.90;;;;;;5037898;28;20101;-77
2023/03/20 12:49:53;;;;;;;22.33;11.77;;;8.10;99.90;;;;;;5048247;28;20151;-77
2023/03/20 12:52:25;;;;;;;19.80;12.53;;;8.20;99.90;;;;;;5028022;28;20060;-79
2023/03/20 12:55:12;;;;;;;23.03;12.93;;;8.10;99.90;;;;;;5049988;28;20032;-76
2023/03/20 12:58:04;;;;;;;25.00;13.20;;;8.00;99.90;;;;;;5031462;28;20040;-76
2023/03/20 13:00:36;;;;;;;;;;;8.00;99.90;;;;;;5016743;28;20052;-77
2023/03/20 13:03:16;;;;;;;21.03;13.73;;;8.00;99.90;;;;;;5047382;28;19975;-80